Time;durP1;ratioP1;P1;durP2;ratioP2;P2;SDS_P1;SDS_P2;PMS_P1;PMS_P2;Temp;Humidity;BMP_temperature;BMP_pressure;BME280_temperature;BME280_humidity;BME280_pressure;Samples;Min_cycle;Max_cycle;Signal;HPM_P1;HPM_P2
2023/07/27 00:00:00;;;;;;;15.07;10.80;;;;;;;-140.66;100.00;55571.53;5121986;28;20092;-75
2023/07/27 00:02:46;;;;;;;11.52;9.80;;;;;;;-140.66;100.00;55571.53;5121669;28;20066;-75
2023/07/27 00:05:31;;;;;;;11.18;9.50;;;;;;;-140.66;100.00;55571.53;5120933;28;20110;-75
2023/07/27 00:08:17;;;;;;;13.95;10.65;;;;;;;-140.66;100.00;55571.53;5107440;28;20035;-75
2023/07/27 00:11:03;;;;;;;11.40;9.95;;;;;;;-140.66;100.00;55571.53;5106857;28;20023;-75
2023/07/27 00:13:48;;;;;;;11.93;10.07;;;;;;;-140.66;100.00;55571.53;5107397;28;20104;-75
2023/07/27 00:16:34;;;;;;;13.57;10.35;;;;;;;-140.66;100.00;55571.53;5121426;28;20055;-75
2023/07/27 00:19:20;;;;;;;11.57;9.75;;;;;;;-140.66;100.00;55571.53;5120841;28;20042;-75
2023/07/27 00:22:06;;;;;;;12.05;10.00;;;;;;;-140.66;100.00;55571.53;5120923;28;20039;-75
2023/07/27 00:24:52;;;;;;;11.18;9.98;;;;;;;-140.66;100.00;55571.53;5121166;28;20027;-75
2023/07/27 00:27:37;;;;;;;13.82;10.88;;;;;;;-140.66;100.00;55571.53;5106610;28;20379;-76
2023/07/27 00:30:24;;;;;;;10.90;9.80;;;;;;;-140.66;100.00;55571.53;5106146;28;20446;-73
2023/07/27 00:33:09;;;;;;;13.38;9.65;;;;;;;-140.66;100.00;55571.53;5120831;28;20038;-74
2023/07/27 00:35:59;;;;;;;10.65;9.55;;;;;;;-140.66;100.00;55571.53;5120707;28;20027;-74
2023/07/27 00:38:45;;;;;;;14.25;9.93;;;;;;;-140.66;100.00;55571.53;5120414;28;20031;-73
2023/07/27 00:41:31;;;;;;;11.50;9.82;;;;;;;-140.66;100.00;55571.53;5119655;28;20019;-75
2023/07/27 00:44:16;;;;;;;10.52;9.43;;;;;;;-140.66;100.00;55571.53;5105710;28;20031;-75
2023/07/27 00:47:03;;;;;;;12.23;9.73;;;;;;;-140.66;100.00;55571.53;5120861;28;20031;-75
2023/07/27 00:49:48;;;;;;;12.43;9.32;;;;;;;-140.66;100.00;55571.53;5120284;28;20020;-76
2023/07/27 00:52:34;;;;;;;12.38;9.82;;;;;;;-140.66;100.00;55571.53;5120646;28;20031;-75
2023/07/27 00:55:20;;;;;;;11.65;8.10;;;;;;;-140.66;100.00;55571.53;5119029;28;20027;-74
2023/07/27 00:58:06;;;;;;;12.65;8.80;;;;;;;-140.66;100.00;55571.53;5120747;28;20031;-75
2023/07/27 01:00:52;;;;;;;11.68;8.90;;;;;;;-140.66;100.00;55571.53;5105246;28;20027;-75
2023/07/27 01:03:37;;;;;;;10.50;9.45;;;;;;;-140.66;100.00;55571.53;5102510;28;20028;-74
2023/07/27 01:06:24;;;;;;;13.25;8.23;;;;;;;-140.66;100.00;55571.53;5117275;28;20398;-75
2023/07/27 01:09:10;;;;;;;11.95;7.38;;;;;;;-140.66;100.00;55571.53;5118213;28;20043;-75
2023/07/27 01:12:07;;;;;;;10.48;8.23;;;;;;;-140.66;100.00;55571.53;5118089;28;20032;-75
2023/07/27 01:15:05;;;;;;;7.97;7.05;;;;;;;-140.66;100.00;55571.53;5101832;28;20344;-74
2023/07/27 01:18:04;;;;;;;10.23;7.22;;;;;;;-140.66;100.00;55571.53;5117229;28;20444;-75
2023/07/27 01:21:11;;;;;;;7.63;6.72;;;;;;;-140.66;100.00;55571.53;5117524;28;20395;-75
2023/07/27 01:24:15;;;;;;;7.38;6.57;;;;;;;-140.66;100.00;55571.53;5117007;28;20055;-75
2023/07/27 01:27:15;;;;;;;7.18;6.47;;;;;;;-140.66;100.00;55571.53;5117011;28;20051;-75
2023/07/27 01:30:40;;;;;;;8.23;6.05;;;;;;;-140.66;100.00;55571.53;5117017;28;20049;-75
2023/07/27 01:33:33;;;;;;;8.27;5.90;;;;;;;-140.66;100.00;55571.53;5116563;28;20055;-75
2023/07/27 01:36:23;;;;;;;7.13;5.13;;;;;;;-140.66;100.00;55571.53;5117356;28;20027;-74
2023/07/27 01:39:11;;;;;;;5.63;5.03;;;;;;;-140.66;100.00;55571.53;5116213;28;20038;-75
2023/07/27 01:41:57;;;;;;;5.93;5.20;;;;;;;-140.66;100.00;55571.53;5127853;28;20062;-74
2023/07/27 01:44:44;;;;;;;7.22;4.78;;;;;;;-140.66;100.00;55571.53;5131532;28;20015;-74
2023/07/27 01:47:31;;;;;;;5.65;4.55;;;;;;;-140.66;100.00;55571.53;5117318;28;20041;-73
2023/07/27 01:50:17;;;;;;;6.68;4.78;;;;;;;-140.66;100.00;55571.53;5102486;28;20089;-75
2023/07/27 01:53:04;;;;;;;5.82;4.20;;;;;;;-140.66;100.00;55571.53;5116524;28;20093;-74
2023/07/27 01:55:52;;;;;;;5.07;4.10;;;;;;;-140.66;100.00;55571.53;5116123;28;20038;-74
2023/07/27 01:58:37;;;;;;;6.63;4.20;;;;;;;-140.66;100.00;55571.53;5115827;28;20447;-73
2023/07/27 02:01:24;;;;;;;7.05;4.20;;;;;;;-140.66;100.00;55571.53;5116283;28;20093;-74
2023/07/27 02:04:10;;;;;;;6.57;3.97;;;;;;;-140.66;100.00;55571.53;5101106;28;20019;-75
2023/07/27 02:06:56;;;;;;;5.65;3.70;;;;;;;-140.66;100.00;55571.53;5116120;28;20370;-73
2023/07/27 02:09:42;;;;;;;6.78;4.07;;;;;;;-140.66;100.00;55571.53;5115310;28;20083;-74
2023/07/27 02:12:34;;;;;;;5.18;3.88;;;;;;;-140.66;100.00;55571.53;5099723;28;20020;-75
2023/07/27 02:15:28;;;;;;;6.53;3.70;;;;;;;-140.66;100.00;55571.53;5114920;28;20030;-74
2023/07/27 02:18:25;;;;;;;6.85;3.50;;;;;;;-140.66;100.00;55571.53;5116400;28;20177;-74
2023/07/27 02:21:12;;;;;;;5.93;3.22;;;;;;;-140.66;100.00;55571.53;5115449;28;20398;-75
2023/07/27 02:23:58;;;;;;;4.70;3.05;;;;;;;-140.66;100.00;55571.53;5100537;28;20032;-75
2023/07/27 02:26:44;;;;;;;3.85;3.17;;;;;;;-140.66;100.00;55571.53;5115947;28;20371;-75
2023/07/27 02:29:30;;;;;;;8.02;3.53;;;;;;;-140.66;100.00;55571.53;5115204;28;20096;-75
2023/07/27 02:32:16;;;;;;;4.15;2.65;;;;;;;-140.66;100.00;55571.53;5101256;28;20032;-74
2023/07/27 02:35:01;;;;;;;5.15;2.97;;;;;;;-140.66;100.00;55571.53;5100740;28;20022;-75
2023/07/27 02:37:47;;;;;;;3.00;2.60;;;;;;;-140.66;100.00;55571.53;5114886;28;20019;-75
2023/07/27 02:40:33;;;;;;;4.85;2.83;;;;;;;-140.66;100.00;55571.53;5100540;28;20023;-75
2023/07/27 02:43:19;;;;;;;5.85;2.30;;;;;;;-140.66;100.00;55571.53;5099984;28;20089;-75
2023/07/27 02:46:05;;;;;;;3.58;2.80;;;;;;;-140.66;100.00;55571.53;5115898;28;20454;-75
2023/07/27 02:48:53;;;;;;;3.38;2.42;;;;;;;-140.66;100.00;55571.53;5101518;28;20066;-74
2023/07/27 02:51:40;;;;;;;4.57;2.35;;;;;;;-140.66;100.00;55571.53;5114408;28;20503;-74
2023/07/27 02:54:26;;;;;;;4.22;2.70;;;;;;;-140.66;100.00;55571.53;5115117;28;20028;-74
2023/07/27 02:57:12;;;;;;;2.88;2.20;;;;;;;-140.66;100.00;55571.53;5114627;28;20026;-75
2023/07/27 02:59:57;;;;;;;3.33;2.10;;;;;;;-140.66;100.00;55571.53;5115813;28;20038;-75
2023/07/27 03:02:43;;;;;;;3.60;2.50;;;;;;;-140.66;100.00;55571.53;5115027;28;20301;-74
2023/07/27 03:05:29;;;;;;;4.90;2.40;;;;;;;-140.66;100.00;55571.53;5099896;28;20023;-74
2023/07/27 03:08:15;;;;;;;2.72;2.15;;;;;;;-140.66;100.00;55571.53;5114696;28;20027;-75
2023/07/27 03:11:02;;;;;;;4.72;2.70;;;;;;;-140.66;100.00;55571.53;5114796;28;20027;-75
2023/07/27 03:13:48;;;;;;;2.60;2.40;;;;;;;-140.66;100.00;55571.53;5099732;28;20030;-75
2023/07/27 03:16:34;;;;;;;4.75;2.80;;;;;;;-140.66;100.00;55571.53;5114393;28;20031;-76
2023/07/27 03:19:20;;;;;;;5.63;2.72;;;;;;;-140.66;100.00;55571.53;5114773;28;20078;-75
2023/07/27 03:22:06;;;;;;;4.00;2.80;;;;;;;-140.66;100.00;55571.53;5101563;28;20355;-74
2023/07/27 03:24:51;;;;;;;4.45;2.83;;;;;;;-140.66;100.00;55571.53;5098157;28;20032;-74
2023/07/27 03:27:37;;;;;;;3.58;2.60;;;;;;;-140.66;100.00;55571.53;5099839;28;20019;-75
2023/07/27 03:30:23;;;;;;;5.60;2.67;;;;;;;-140.66;100.00;55571.53;5100135;28;20418;-76
2023/07/27 03:33:09;;;;;;;4.95;2.80;;;;;;;-140.66;100.00;55571.53;5100859;28;20440;-75
2023/07/27 03:35:54;;;;;;;5.22;3.03;;;;;;;-140.66;100.00;55571.53;5099102;28;20023;-76
2023/07/27 03:38:40;;;;;;;7.95;3.08;;;;;;;-140.66;100.00;55571.53;5114160;28;20027;-75
2023/07/27 03:41:26;;;;;;;4.75;3.05;;;;;;;-140.66;100.00;55571.53;5100241;28;20031;-76
2023/07/27 03:44:13;;;;;;;4.72;3.15;;;;;;;-140.66;100.00;55571.53;5114752;28;20023;-74
2023/07/27 03:46:58;;;;;;;4.00;2.78;;;;;;;-140.66;100.00;55571.53;5114074;28;20459;-74
2023/07/27 03:49:44;;;;;;;3.00;2.65;;;;;;;-140.66;100.00;55571.53;5115813;28;20371;-74
2023/07/27 03:52:30;;;;;;;3.88;2.80;;;;;;;-140.66;100.00;55571.53;5116085;28;20019;-74
2023/07/27 03:55:18;;;;;;;3.38;3.00;;;;;;;-140.66;100.00;55571.53;5115118;28;20024;-75
2023/07/27 03:58:04;;;;;;;5.05;2.85;;;;;;;-140.66;100.00;55571.53;5114967;28;20032;-75
2023/07/27 04:00:50;;;;;;;3.80;2.95;;;;;;;-140.66;100.00;55571.53;5116005;28;20031;-75
2023/07/27 04:03:35;;;;;;;4.88;2.85;;;;;;;-140.66;100.00;55571.53;5116136;28;20028;-74
2023/07/27 04:06:21;;;;;;;4.50;2.42;;;;;;;-140.66;100.00;55571.53;5115464;28;20455;-74
2023/07/27 04:09:07;;;;;;;3.28;2.60;;;;;;;-140.66;100.00;55571.53;5116665;28;20028;-74
2023/07/27 04:11:53;;;;;;;3.63;2.50;;;;;;;-140.66;100.00;55571.53;5115976;28;20034;-75
2023/07/27 04:14:39;;;;;;;3.80;2.58;;;;;;;-140.66;100.00;55571.53;5114260;28;20332;-75
2023/07/27 04:17:24;;;;;;;3.97;2.40;;;;;;;-140.66;100.00;55571.53;5099643;28;20038;-75
2023/07/27 04:20:10;;;;;;;3.53;2.38;;;;;;;-140.66;100.00;55571.53;5113413;28;20055;-77
2023/07/27 04:22:56;;;;;;;4.15;2.17;;;;;;;-140.66;100.00;55571.53;5114955;28;20032;-76
2023/07/27 04:25:42;;;;;;;2.47;2.00;;;;;;;-140.66;100.00;55571.53;5126113;28;20035;-76
2023/07/27 04:28:28;;;;;;;2.63;2.30;;;;;;;-140.66;100.00;55571.53;5126653;28;20110;-75
2023/07/27 04:31:13;;;;;;;3.58;2.03;;;;;;;-140.66;100.00;55571.53;5123377;28;20032;-76
2023/07/27 04:33:59;;;;;;;3.75;2.42;;;;;;;-140.66;100.00;55571.53;5112774;28;20044;-75
2023/07/27 04:36:47;;;;;;;6.60;2.28;;;;;;;-140.66;100.00;55571.53;5133570;28;20065;-74
2023/07/27 04:39:33;;;;;;;5.03;2.08;;;;;;;-140.66;100.00;55571.53;5138840;28;20015;-72
2023/07/27 04:42:18;;;;;;;2.25;2.00;;;;;;;-140.66;100.00;55571.53;5122145;28;20420;-75
2023/07/27 04:45:04;;;;;;;3.33;2.30;;;;;;;-140.66;100.00;55571.53;5118024;28;20027;-76
2023/07/27 04:47:50;;;;;;;2.35;1.90;;;;;;;-140.66;100.00;55571.53;5103399;28;20023;-75
2023/07/27 04:50:36;;;;;;;6.22;2.00;;;;;;;-140.66;100.00;55571.53;5104166;28;20031;-75
2023/07/27 04:53:22;;;;;;;3.15;2.05;;;;;;;-140.66;100.00;55571.53;5117107;28;20444;-75
2023/07/27 04:56:07;;;;;;;2.42;2.22;;;;;;;-140.66;100.00;55571.53;5117909;28;20020;-75
2023/07/27 04:58:54;;;;;;;3.42;2.10;;;;;;;-140.66;100.00;55571.53;5136780;28;20051;-76
2023/07/27 05:01:40;;;;;;;5.30;1.80;;;;;;;-140.66;100.00;55571.53;5102499;28;20030;-75
2023/07/27 05:04:25;;;;;;;4.50;2.17;;;;;;;-140.66;100.00;55571.53;5116619;28;20038;-75
2023/07/27 05:07:11;;;;;;;6.70;1.70;;;;;;;-140.66;100.00;55571.53;5103036;28;20087;-76
2023/07/27 05:09:57;;;;;;;1.75;1.65;;;;;;;-140.66;100.00;55571.53;5102838;28;20059;-76
2023/07/27 05:12:42;;;;;;;2.28;1.70;;;;;;;-140.66;100.00;55571.53;5117110;28;20027;-77
2023/07/27 05:15:28;;;;;;;3.38;1.65;;;;;;;-140.66;100.00;55571.53;5116457;28;20386;-76
2023/07/27 05:18:14;;;;;;;10.45;1.98;;;;;;;-140.66;100.00;55571.53;5118084;28;20352;-74
2023/07/27 05:21:00;;;;;;;4.03;1.90;;;;;;;-140.66;100.00;55571.53;5116943;28;20048;-75
2023/07/27 05:23:46;;;;;;;2.40;1.70;;;;;;;-140.66;100.00;55571.53;5117741;28;20023;-75
2023/07/27 05:26:31;;;;;;;3.50;1.60;;;;;;;-140.66;100.00;55571.53;5102804;28;20080;-75
2023/07/27 05:29:18;;;;;;;6.07;1.90;;;;;;;-140.66;100.00;55571.53;5116718;28;20027;-75
2023/07/27 05:32:04;;;;;;;2.42;1.60;;;;;;;-140.66;100.00;55571.53;5101522;28;20097;-76
2023/07/27 05:34:49;;;;;;;3.17;1.60;;;;;;;-140.66;100.00;55571.53;5116901;28;20023;-75
2023/07/27 05:37:35;;;;;;;2.75;1.55;;;;;;;-140.66;100.00;55571.53;5116370;28;20379;-75
2023/07/27 05:40:21;;;;;;;3.65;1.60;;;;;;;-140.66;100.00;55571.53;5116676;28;20023;-75
2023/07/27 05:43:07;;;;;;;4.60;1.63;;;;;;;-140.66;100.00;55571.53;5116333;28;20464;-76
2023/07/27 05:45:52;;;;;;;6.60;1.95;;;;;;;-140.66;100.00;55571.53;5115504;28;20091;-75
2023/07/27 05:48:38;;;;;;;5.10;1.75;;;;;;;-140.66;100.00;55571.53;5116701;28;20038;-75
2023/07/27 05:51:24;;;;;;;3.97;1.58;;;;;;;-140.66;100.00;55571.53;5116592;28;20093;-75
2023/07/27 05:54:10;;;;;;;3.78;1.70;;;;;;;-140.66;100.00;55571.53;5115807;28;20027;-74
2023/07/27 05:56:55;;;;;;;2.78;1.60;;;;;;;-140.66;100.00;55571.53;5115693;28;20034;-74
2023/07/27 05:59:41;;;;;;;4.57;2.45;;;;;;;-140.66;100.00;55571.53;5117199;28;20031;-75
2023/07/27 06:02:27;;;;;;;3.63;1.80;;;;;;;-140.66;100.00;55571.53;5116238;28;20095;-76
2023/07/27 06:05:14;;;;;;;5.03;1.95;;;;;;;-140.66;100.00;55571.53;5117140;28;20019;-75
2023/07/27 06:07:59;;;;;;;3.65;1.90;;;;;;;-140.66;100.00;55571.53;5116395;28;20042;-75
2023/07/27 06:10:45;;;;;;;2.22;1.60;;;;;;;-140.66;100.00;55571.53;5116033;28;20463;-75
2023/07/27 06:13:31;;;;;;;7.25;1.80;;;;;;;-140.66;100.00;55571.53;5116264;28;20020;-75
2023/07/27 06:16:17;;;;;;;3.38;1.48;;;;;;;-140.66;100.00;55571.53;5116649;28;20382;-75
2023/07/27 06:19:03;;;;;;;2.65;1.63;;;;;;;-140.66;100.00;55571.53;5115858;28;20020;-75
2023/07/27 06:21:48;;;;;;;5.45;1.33;;;;;;;-140.66;100.00;55571.53;5117049;28;20130;-75
2023/07/27 06:24:34;;;;;;;6.60;1.33;;;;;;;-140.66;100.00;55571.53;5115338;28;20063;-76
2023/07/27 06:27:20;;;;;;;4.35;1.67;;;;;;;-140.66;100.00;55571.53;5101821;28;20027;-76
2023/07/27 06:30:12;;;;;;;3.92;1.60;;;;;;;-140.66;100.00;55571.53;5100982;28;20051;-77
2023/07/27 06:33:01;;;;;;;3.40;1.50;;;;;;;-140.66;100.00;55571.53;5101197;28;20395;-75
2023/07/27 06:35:46;;;;;;;3.42;1.30;;;;;;;-140.66;100.00;55571.53;5115485;28;20027;-75
2023/07/27 06:38:32;;;;;;;2.00;1.40;;;;;;;-140.66;100.00;55571.53;5100761;28;20035;-75
2023/07/27 06:41:24;;;;;;;2.40;1.58;;;;;;;-140.66;100.00;55571.53;5117871;28;20126;-75
2023/07/27 06:44:10;;;;;;;4.30;1.38;;;;;;;-140.66;100.00;55571.53;5115920;28;20505;-77
2023/07/27 06:46:56;;;;;;;3.65;1.38;;;;;;;-140.66;100.00;55571.53;5116524;28;20035;-75
2023/07/27 06:49:41;;;;;;;6.32;1.73;;;;;;;-140.66;100.00;55571.53;5114241;28;20459;-75
2023/07/27 06:52:27;;;;;;;2.28;1.20;;;;;;;-140.66;100.00;55571.53;5101849;28;20034;-73
2023/07/27 06:55:13;;;;;;;1.23;1.08;;;;;;;-140.66;100.00;55571.53;5114761;28;20439;-74
2023/07/27 06:57:59;;;;;;;4.75;1.30;;;;;;;-140.66;100.00;55571.53;5116645;28;20035;-75
2023/07/27 07:00:44;;;;;;;2.90;1.50;;;;;;;-140.66;100.00;55571.53;5122262;28;20081;-75
2023/07/27 07:03:30;;;;;;;8.93;1.40;;;;;;;-140.66;100.00;55571.53;5117356;28;20035;-74
2023/07/27 07:06:16;;;;;;;4.75;1.30;;;;;;;-140.66;100.00;55571.53;5120130;28;20082;-75
2023/07/27 07:09:02;;;;;;;4.25;1.45;;;;;;;-140.66;100.00;55571.53;5105086;28;20042;-74
2023/07/27 07:11:48;;;;;;;7.22;1.77;;;;;;;-140.66;100.00;55571.53;5105672;28;20470;-75
2023/07/27 07:14:34;;;;;;;2.38;1.63;;;;;;;-140.66;100.00;55571.53;5104844;28;20068;-76
2023/07/27 07:17:19;;;;;;;4.15;1.67;;;;;;;-140.66;100.00;55571.53;5119074;28;20082;-76
2023/07/27 07:20:08;;;;;;;5.07;1.50;;;;;;;-140.66;100.00;55571.53;5118693;28;20394;-76
2023/07/27 07:22:54;;;;;;;5.18;1.30;;;;;;;-140.66;100.00;55571.53;5116328;28;20046;-74
2023/07/27 07:25:43;;;;;;;5.75;1.60;;;;;;;-140.66;100.00;55571.53;5106689;28;20039;-74
2023/07/27 07:28:29;;;;;;;3.95;1.90;;;;;;;-140.66;100.00;55571.53;5118516;28;20459;-74
2023/07/27 07:31:15;;;;;;;2.05;1.40;;;;;;;-140.66;100.00;55571.53;5108511;28;20100;-74
2023/07/27 07:34:01;;;;;;;7.60;1.60;;;;;;;-140.66;100.00;55571.53;5102677;28;20012;-73
2023/07/27 07:36:46;;;;;;;4.50;1.27;;;;;;;-140.66;100.00;55571.53;5103082;28;20034;-76
2023/07/27 07:39:32;;;;;;;5.72;1.90;;;;;;;-140.66;100.00;55571.53;5115886;28;20043;-76
2023/07/27 07:42:18;;;;;;;4.05;1.48;;;;;;;-140.66;100.00;55571.53;5114362;28;20419;-75
2023/07/27 07:45:04;;;;;;;3.65;1.40;;;;;;;-140.66;100.00;55571.53;5114926;28;20089;-74
2023/07/27 07:47:50;;;;;;;4.38;1.65;;;;;;;-140.66;100.00;55571.53;5113764;28;20478;-75
2023/07/27 07:50:39;;;;;;;3.65;1.67;;;;;;;-140.66;100.00;55571.53;5114467;28;20042;-75
2023/07/27 07:53:25;;;;;;;2.90;1.58;;;;;;;-140.66;100.00;55571.53;5114101;28;20035;-76
2023/07/27 07:56:15;;;;;;;6.53;1.80;;;;;;;-140.66;100.00;55571.53;5114169;28;20444;-76
2023/07/27 07:59:02;;;;;;;7.20;2.30;;;;;;;-140.66;100.00;55571.53;5100046;28;20410;-75
2023/07/27 08:01:48;;;;;;;4.40;1.60;;;;;;;-140.66;100.00;55571.53;5120395;28;20087;-74
2023/07/27 08:04:33;;;;;;;3.10;1.70;;;;;;;-140.66;100.00;55571.53;5131545;28;20142;-73
2023/07/27 08:07:19;;;;;;;6.60;1.80;;;;;;;-140.66;100.00;55571.53;5117528;28;20008;-75
2023/07/27 08:10:05;;;;;;;2.95;2.00;;;;;;;-140.66;100.00;55571.53;5114646;28;20023;-75
2023/07/27 08:12:52;;;;;;;2.42;1.67;;;;;;;-140.66;100.00;55571.53;5102842;28;20543;-75
2023/07/27 08:15:38;;;;;;;8.13;1.60;;;;;;;-140.66;100.00;55571.53;5119618;28;20023;-75
2023/07/27 08:18:24;;;;;;;6.18;1.70;;;;;;;-140.66;100.00;55571.53;5104154;28;20038;-76
2023/07/27 08:21:09;;;;;;;5.60;1.40;;;;;;;-140.66;100.00;55571.53;5118740;28;20055;-75
2023/07/27 08:23:55;;;;;;;3.38;2.10;;;;;;;-140.66;100.00;55571.53;5119035;28;20127;-75
2023/07/27 08:26:41;;;;;;;2.42;1.48;;;;;;;-140.66;100.00;55571.53;5118309;28;20046;-75
2023/07/27 08:29:27;;;;;;;5.72;1.58;;;;;;;-140.66;100.00;55571.53;5118257;28;20042;-74
2023/07/27 08:32:12;;;;;;;1.75;1.35;;;;;;;-140.66;100.00;55571.53;5118362;28;20027;-75
2023/07/27 08:34:58;;;;;;;3.15;1.63;;;;;;;-140.66;100.00;55571.53;5103177;28;20019;-75
2023/07/27 08:37:44;;;;;;;4.60;1.63;;;;;;;-140.66;100.00;55571.53;5103138;28;20035;-75
2023/07/27 08:40:30;;;;;;;4.93;1.65;;;;;;;-140.66;100.00;55571.53;5118515;28;20462;-76
2023/07/27 08:43:16;;;;;;;2.08;1.30;;;;;;;-140.66;100.00;55571.53;5101977;28;20024;-75
2023/07/27 08:46:04;;;;;;;5.32;1.80;;;;;;;-140.66;100.00;55571.53;5117908;28;20035;-76
2023/07/27 08:48:51;;;;;;;6.22;2.08;;;;;;;-140.66;100.00;55571.53;5117848;28;20051;-75
2023/07/27 08:51:39;;;;;;;3.28;2.00;;;;;;;-140.66;100.00;55571.53;5117324;28;20027;-75
2023/07/27 08:54:25;;;;;;;6.32;2.10;;;;;;;-140.66;100.00;55571.53;5117572;28;20027;-75
2023/07/27 08:57:11;;;;;;;5.78;2.42;;;;;;;-140.66;100.00;55571.53;5117972;28;20148;-75
2023/07/27 08:59:57;;;;;;;12.30;3.30;;;;;;;-140.66;100.00;55571.53;5117740;28;20047;-75
2023/07/27 09:02:43;;;;;;;6.97;2.53;;;;;;;-140.66;100.00;55571.53;5117587;28;20023;-74
2023/07/27 09:05:43;;;;;;;5.95;3.10;;;;;;;-140.66;100.00;55571.53;5102102;28;20105;-74
2023/07/27 09:08:29;;;;;;;6.50;3.15;;;;;;;-140.66;100.00;55571.53;5103433;28;20035;-76
2023/07/27 09:11:19;;;;;;;4.30;2.45;;;;;;;-140.66;100.00;55571.53;5101793;28;20061;-75
2023/07/27 09:14:05;;;;;;;7.20;3.25;;;;;;;-140.66;100.00;55571.53;5101892;28;20103;-76
2023/07/27 09:16:50;;;;;;;3.30;2.10;;;;;;;-140.66;100.00;55571.53;5117805;28;20035;-75
2023/07/27 09:19:37;;;;;;;3.80;2.58;;;;;;;-140.66;100.00;55571.53;5102338;28;20067;-75
2023/07/27 09:22:23;;;;;;;4.90;2.55;;;;;;;-140.66;100.00;55571.53;5116215;28;20027;-76
2023/07/27 09:25:08;;;;;;;3.65;2.35;;;;;;;-140.66;100.00;55571.53;5102994;28;20019;-76
2023/07/27 09:27:55;;;;;;;3.47;2.00;;;;;;;-140.66;100.00;55571.53;5117553;28;20023;-76
2023/07/27 09:30:43;;;;;;;2.53;2.05;;;;;;;-140.66;100.00;55571.53;5100867;28;20456;-76
2023/07/27 09:33:30;;;;;;;5.05;1.90;;;;;;;-140.66;100.00;55571.53;5116849;28;20101;-75
2023/07/27 09:36:15;;;;;;;2.45;1.63;;;;;;;-140.66;100.00;55571.53;5117687;28;20092;-75
2023/07/27 09:39:03;;;;;;;3.67;1.42;;;;;;;-140.66;100.00;55571.53;5116443;28;20038;-76
2023/07/27 09:41:50;;;;;;;2.35;1.65;;;;;;;-140.66;100.00;55571.53;5117470;28;20031;-76
2023/07/27 09:44:49;;;;;;;2.88;1.45;;;;;;;-140.66;100.00;55571.53;5116721;28;20035;-75
2023/07/27 09:47:35;;;;;;;5.13;1.65;;;;;;;-140.66;100.00;55571.53;5117701;28;20155;-75
2023/07/27 09:50:22;;;;;;;6.38;1.75;;;;;;;-140.66;100.00;55571.53;5116866;28;20466;-75
2023/07/27 09:53:11;;;;;;;2.42;1.70;;;;;;;-140.66;100.00;55571.53;5101709;28;20341;-75
2023/07/27 09:55:59;;;;;;;4.55;1.77;;;;;;;-140.66;100.00;55571.53;5116002;28;20155;-76
2023/07/27 09:58:47;;;;;;;2.13;1.50;;;;;;;-140.66;100.00;55571.53;5116295;28;20110;-75
2023/07/27 10:01:33;;;;;;;2.90;1.80;;;;;;;-140.66;100.00;55571.53;5101755;28;20176;-76
2023/07/27 10:04:19;;;;;;;4.22;1.50;;;;;;;-140.66;100.00;55571.53;5102476;28;20088;-76
2023/07/27 10:07:05;;;;;;;3.25;1.40;;;;;;;-140.66;100.00;55571.53;5102398;28;20023;-76
2023/07/27 10:10:34;;;;;;;3.42;1.55;;;;;;;-140.66;100.00;55571.53;5116502;28;20036;-76
2023/07/27 10:13:23;;;;;;;2.50;1.40;;;;;;;-140.66;100.00;55571.53;5115671;28;20027;-76
2023/07/27 10:16:11;;;;;;;3.63;1.33;;;;;;;-140.66;100.00;55571.53;5116317;28;20397;-75
2023/07/27 10:18:56;;;;;;;2.00;1.52;;;;;;;-140.66;100.00;55571.53;5100722;28;20023;-75
2023/07/27 10:21:47;;;;;;;2.03;1.70;;;;;;;-140.66;100.00;55571.53;5115852;28;20078;-76
2023/07/27 10:24:45;;;;;;;2.90;2.00;;;;;;;-140.66;100.00;55571.53;5101414;28;20023;-76
2023/07/27 10:27:55;;;;;;;2.45;1.83;;;;;;;-140.66;100.00;55571.53;5116071;28;20024;-75
2023/07/27 10:30:43;;;;;;;3.83;1.40;;;;;;;-140.66;100.00;55571.53;5100249;28;20042;-75
2023/07/27 10:33:28;;;;;;;3.65;1.90;;;;;;;-140.66;100.00;55571.53;5115221;28;20451;-75
2023/07/27 10:36:15;;;;;;;4.30;2.15;;;;;;;-140.66;100.00;55571.53;5115336;28;20027;-75
2023/07/27 10:39:01;;;;;;;3.17;2.33;;;;;;;-140.66;100.00;55571.53;5115430;28;20028;-75
2023/07/27 10:42:00;;;;;;;3.50;2.78;;;;;;;-140.66;100.00;55571.53;5115176;28;20055;-75
2023/07/27 10:44:50;;;;;;;4.72;2.40;;;;;;;-140.66;100.00;55571.53;5115869;28;20349;-75
2023/07/27 10:47:37;;;;;;;7.30;2.70;;;;;;;-140.66;100.00;55571.53;5099815;28;20019;-74
2023/07/27 10:50:23;;;;;;;3.47;2.58;;;;;;;-140.66;100.00;55571.53;5115123;28;20028;-75
2023/07/27 10:53:09;;;;;;;4.90;2.13;;;;;;;-140.66;100.00;55571.53;5115406;28;20126;-75
2023/07/27 10:55:56;;;;;;;3.47;1.90;;;;;;;-140.66;100.00;55571.53;5100649;28;20027;-75
2023/07/27 10:58:44;;;;;;;3.78;2.03;;;;;;;-140.66;100.00;55571.53;5101108;28;20023;-74
2023/07/27 11:01:33;;;;;;;5.43;2.88;;;;;;;-140.66;100.00;55571.53;5121553;28;20348;-74
2023/07/27 11:04:19;;;;;;;4.53;2.67;;;;;;;-140.66;100.00;55571.53;5115410;28;20038;-75
2023/07/27 11:07:05;;;;;;;6.60;3.20;;;;;;;-140.66;100.00;55571.53;5101031;28;20032;-75
2023/07/27 11:09:51;;;;;;;4.47;3.30;;;;;;;-140.66;100.00;55571.53;5115546;28;20026;-75
2023/07/27 11:12:52;;;;;;;5.88;4.25;;;;;;;-140.66;100.00;55571.53;5101236;28;20463;-75
2023/07/27 11:15:38;;;;;;;8.43;3.30;;;;;;;-140.66;100.00;55571.53;5117771;28;20051;-75
2023/07/27 11:18:24;;;;;;;2.90;2.55;;;;;;;-140.66;100.00;55571.53;5123290;28;20019;-74
2023/07/27 11:21:11;;;;;;;5.40;3.20;;;;;;;-140.66;100.00;55571.53;5117248;28;20100;-75
2023/07/27 11:23:57;;;;;;;5.50;3.67;;;;;;;-140.66;100.00;55571.53;5115938;28;20049;-76
2023/07/27 11:26:43;;;;;;;7.45;3.97;;;;;;;-140.66;100.00;55571.53;5099782;28;20173;-74
2023/07/27 11:29:29;;;;;;;5.07;3.78;;;;;;;-140.66;100.00;55571.53;5114987;28;20055;-75
2023/07/27 11:32:14;;;;;;;6.70;3.63;;;;;;;-140.66;100.00;55571.53;5115919;28;20023;-76
2023/07/27 11:35:00;;;;;;;4.18;3.70;;;;;;;-140.66;100.00;55571.53;5114856;28;20462;-74
2023/07/27 11:37:47;;;;;;;5.38;3.70;;;;;;;-140.66;100.00;55571.53;5114239;28;20105;-74
2023/07/27 11:40:32;;;;;;;4.93;3.38;;;;;;;-140.66;100.00;55571.53;5115039;28;20031;-74
2023/07/27 11:43:19;;;;;;;5.22;3.75;;;;;;;-140.66;100.00;55571.53;5100747;28;20025;-75
2023/07/27 11:46:05;;;;;;;4.85;3.25;;;;;;;-140.66;100.00;55571.53;5114402;28;20463;-75
2023/07/27 11:48:50;;;;;;;4.20;3.17;;;;;;;-140.66;100.00;55571.53;5114462;28;20036;-74
2023/07/27 11:51:38;;;;;;;5.03;3.47;;;;;;;-140.66;100.00;55571.53;5115038;28;20062;-76
2023/07/27 11:54:27;;;;;;;4.57;3.53;;;;;;;-140.66;100.00;55571.53;5100187;28;20027;-75
2023/07/27 11:57:15;;;;;;;5.72;3.30;;;;;;;-140.66;100.00;55571.53;5114307;28;20035;-75
2023/07/27 12:00:12;;;;;;;3.83;3.25;;;;;;;-140.66;100.00;55571.53;5099088;28;20047;-74
2023/07/27 12:02:58;;;;;;;4.93;3.00;;;;;;;-140.66;100.00;55571.53;5100022;28;20079;-75
2023/07/27 12:05:44;;;;;;;5.82;3.25;;;;;;;-140.66;100.00;55571.53;5114107;28;20028;-75
2023/07/27 12:08:34;;;;;;;3.78;3.10;;;;;;;-140.66;100.00;55571.53;5114689;28;20035;-75
2023/07/27 12:11:27;;;;;;;11.15;4.13;;;;;;;-140.66;100.00;55571.53;5114094;28;20019;-76
2023/07/27 12:14:13;;;;;;;16.38;6.22;;;;;;;-140.66;100.00;55571.53;5099118;28;20031;-74
2023/07/27 12:16:59;;;;;;;19.08;5.72;;;;;;;-140.66;100.00;55571.53;5115164;28;20020;-75
2023/07/27 12:19:44;;;;;;;11.30;4.68;;;;;;;-140.66;100.00;55571.53;5115499;28;20063;-74
2023/07/27 12:22:30;;;;;;;8.35;4.22;;;;;;;-140.66;100.00;55571.53;5115814;28;20097;-73
2023/07/27 12:25:16;;;;;;;8.68;4.15;;;;;;;-140.66;100.00;55571.53;5114826;28;20039;-74
2023/07/27 12:28:02;;;;;;;8.38;4.60;;;;;;;-140.66;100.00;55571.53;5115423;28;20115;-74
2023/07/27 12:30:48;;;;;;;8.50;3.38;;;;;;;-140.66;100.00;55571.53;5114235;28;20085;-75
2023/07/27 12:33:34;;;;;;;8.45;4.18;;;;;;;-140.66;100.00;55571.53;5099620;28;20051;-74
2023/07/27 12:36:20;;;;;;;30.73;8.18;;;;;;;-140.66;100.00;55571.53;5114445;28;20031;-75